createdAt,value
2023-01-10T00:01:39.313Z,-17.90
2023-01-10T00:04:06.385Z,-17.90
2023-01-10T00:06:33.531Z,-17.80
2023-01-10T00:09:00.701Z,-17.90
2023-01-10T00:11:46.513Z,-17.80
2023-01-10T00:14:13.675Z,-17.90
2023-01-10T00:16:42.788Z,-17.80
2023-01-10T00:19:10.852Z,-17.70
2023-01-10T00:21:39.837Z,-17.70
2023-01-10T00:24:19.658Z,-17.70
2023-01-10T00:26:51.674Z,-17.70
2023-01-10T00:29:28.009Z,-17.80
2023-01-10T00:31:55.752Z,-17.70
2023-01-10T00:34:23.692Z,-17.80
2023-01-10T00:36:51.108Z,-17.80
2023-01-10T00:39:20.690Z,-17.70
2023-01-10T00:42:06.800Z,-17.70
2023-01-10T00:44:34.052Z,-17.60
2023-01-10T00:47:01.303Z,-17.50
2023-01-10T00:49:28.525Z,-17.60
2023-01-10T00:51:58.387Z,-17.60
2023-01-10T00:54:26.221Z,-17.60
2023-01-10T00:56:53.435Z,-17.60
2023-01-10T00:59:20.806Z,-17.50
2023-01-10T01:01:48.057Z,-17.50
2023-01-10T01:04:15.162Z,-17.40
2023-01-10T01:06:45.935Z,-17.40
2023-01-10T01:09:13.827Z,-17.40
2023-01-10T01:11:41.031Z,-17.40
2023-01-10T01:14:08.242Z,-17.30
2023-01-10T01:16:35.305Z,-17.40
2023-01-10T01:19:02.468Z,-17.30
2023-01-10T01:21:29.538Z,-17.30
2023-01-10T01:23:59.378Z,-17.30
2023-01-10T01:26:27.083Z,-17.30
2023-01-10T01:28:54.198Z,-17.30
2023-01-10T01:31:21.444Z,-17.20
2023-01-10T01:33:49.414Z,-17.20
2023-01-10T01:36:16.612Z,-17.30
2023-01-10T01:38:43.787Z,-17.30
2023-01-10T01:41:29.678Z,-17.30
2023-01-10T01:44:29.529Z,-17.20
2023-01-10T01:47:02.739Z,-17.20
2023-01-10T01:49:32.453Z,-17.30
2023-01-10T01:52:04.045Z,-17.20
2023-01-10T01:54:32.648Z,-17.10
2023-01-10T01:57:22.340Z,-17.00
2023-01-10T01:59:51.463Z,-17.00
2023-01-10T02:02:29.008Z,-17.00
2023-01-10T02:05:05.496Z,-17.00
2023-01-10T02:07:37.650Z,-17.00
2023-01-10T02:10:39.794Z,-17.00
2023-01-10T02:13:07.892Z,-16.90
2023-01-10T02:15:36.242Z,-16.90
2023-01-10T02:18:04.420Z,-16.60
2023-01-10T02:20:54.291Z,-17.00
2023-01-10T02:23:38.266Z,-16.90
2023-01-10T02:26:42.808Z,-16.90
2023-01-10T02:29:12.694Z,-16.90
2023-01-10T02:32:04.847Z,-16.80
2023-01-10T02:35:05.788Z,-16.80
2023-01-10T02:37:41.426Z,-16.70
2023-01-10T02:40:33.343Z,-16.70
2023-01-10T02:43:19.728Z,-16.70
2023-01-10T02:46:14.246Z,-16.70
2023-01-10T02:48:41.553Z,-16.80
2023-01-10T02:51:22.279Z,-16.70
2023-01-10T02:53:55.972Z,-16.70
2023-01-10T02:56:51.154Z,-16.60
2023-01-10T02:59:54.895Z,-16.60
2023-01-10T03:02:34.735Z,-16.60
2023-01-10T03:05:13.730Z,-16.60
2023-01-10T03:07:52.836Z,-16.50
2023-01-10T03:10:35.429Z,-16.50
2023-01-10T03:13:24.900Z,-16.50
2023-01-10T03:15:54.883Z,-16.40
2023-01-10T03:18:32.466Z,-16.30
2023-01-10T03:21:02.851Z,-16.30
2023-01-10T03:23:33.036Z,-16.40
2023-01-10T03:26:01.168Z,-16.40
2023-01-10T03:28:52.577Z,-16.30
2023-01-10T03:31:28.585Z,-16.20
2023-01-10T03:33:56.478Z,-15.40
2023-01-10T03:36:34.696Z,-16.10
2023-01-10T03:39:14.630Z,-16.10
2023-01-10T03:42:05.477Z,-16.10
2023-01-10T03:44:44.909Z,-16.00
2023-01-10T03:47:30.014Z,-16.10
2023-01-10T03:50:01.771Z,-16.10
2023-01-10T03:52:33.017Z,-16.10
2023-01-10T03:55:00.730Z,-16.10
2023-01-10T03:57:27.879Z,-16.00
2023-01-10T03:59:58.361Z,-15.90
2023-01-10T04:02:31.543Z,-15.90
2023-01-10T04:04:59.348Z,-15.40
2023-01-10T04:07:26.968Z,-15.70
2023-01-10T04:09:54.443Z,-15.70
2023-01-10T04:12:21.545Z,-15.70
2023-01-10T04:14:48.828Z,-15.60
2023-01-10T04:17:17.750Z,-15.60
2023-01-10T04:19:45.087Z,-15.20
2023-01-10T04:22:12.869Z,-15.50
2023-01-10T04:24:40.422Z,-15.40
2023-01-10T04:27:07.804Z,-13.80
2023-01-10T04:29:34.878Z,-15.40
2023-01-10T04:32:02.181Z,-15.30
2023-01-10T04:34:29.475Z,-15.30
2023-01-10T04:36:56.615Z,-15.40
2023-01-10T04:39:24.205Z,-15.20
2023-01-10T04:41:51.301Z,-15.30
2023-01-10T04:44:18.377Z,-15.20
2023-01-10T04:46:45.681Z,-15.20
2023-01-10T04:49:12.989Z,-15.30
2023-01-10T04:51:40.884Z,-15.10
2023-01-10T04:54:08.097Z,-15.20
2023-01-10T04:56:35.221Z,-15.10
2023-01-10T04:59:02.335Z,-15.00
2023-01-10T05:01:29.605Z,-15.00
2023-01-10T05:03:57.080Z,-15.00
2023-01-10T05:06:25.407Z,-15.00
2023-01-10T05:08:52.617Z,-14.30
2023-01-10T05:11:19.756Z,-15.00
2023-01-10T05:13:48.112Z,-14.80
2023-01-10T05:16:15.865Z,-14.80
2023-01-10T05:18:43.251Z,-14.80
2023-01-10T05:21:12.169Z,-14.80
2023-01-10T05:23:40.603Z,-14.70
2023-01-10T05:26:14.777Z,-14.70
2023-01-10T05:28:42.809Z,-14.70
2023-01-10T05:31:16.575Z,-14.70
2023-01-10T05:33:48.343Z,-14.80
2023-01-10T05:36:15.792Z,-14.70
2023-01-10T05:38:42.924Z,-14.00
2023-01-10T05:41:10.407Z,-14.50
2023-01-10T05:43:37.671Z,-14.50
2023-01-10T05:46:05.036Z,-14.50
2023-01-10T05:48:32.135Z,-14.40
2023-01-10T05:50:59.219Z,-14.40
2023-01-10T05:53:27.220Z,-14.40
2023-01-10T05:55:55.245Z,-14.30
2023-01-10T05:58:22.547Z,-14.30
2023-01-10T06:00:50.343Z,-14.30
2023-01-10T06:03:19.087Z,-14.20
2023-01-10T06:05:48.630Z,-14.20
2023-01-10T06:08:16.407Z,-14.20
2023-01-10T06:10:44.327Z,-13.40
2023-01-10T06:13:12.415Z,-14.00
2023-01-10T06:15:40.337Z,-13.90
2023-01-10T06:18:07.666Z,-13.80
2023-01-10T06:20:35.046Z,-13.50
2023-01-10T06:23:04.852Z,-12.70
2023-01-10T06:25:34.069Z,-13.70
2023-01-10T06:28:01.146Z,-13.80
2023-01-10T06:30:28.296Z,-13.70
2023-01-10T06:33:02.269Z,-13.80
2023-01-10T06:35:30.022Z,-13.80
2023-01-10T06:37:57.757Z,-13.70
2023-01-10T06:40:25.688Z,-13.70
2023-01-10T06:42:52.824Z,-13.60
2023-01-10T06:45:20.343Z,-13.70
2023-01-10T06:47:47.787Z,-13.80
2023-01-10T06:50:14.947Z,-13.80
2023-01-10T06:52:42.155Z,-13.70
2023-01-10T06:55:09.529Z,-13.80
2023-01-10T06:57:38.448Z,-13.70
2023-01-10T07:00:08.581Z,-13.70
2023-01-10T07:02:35.842Z,-13.70
2023-01-10T07:05:02.930Z,-13.60
2023-01-10T07:07:31.102Z,-13.60
2023-01-10T07:09:59.908Z,-13.50
2023-01-10T07:12:26.972Z,-13.50
2023-01-10T07:14:54.137Z,-13.40
2023-01-10T07:17:21.351Z,-13.40
2023-01-10T07:19:48.649Z,-13.30
2023-01-10T07:22:15.854Z,-13.30
2023-01-10T07:24:43.171Z,-13.20
2023-01-10T07:27:10.222Z,-13.10
2023-01-10T07:29:37.264Z,-13.10
2023-01-10T07:32:04.805Z,-13.10
2023-01-10T07:34:31.995Z,-13.10
2023-01-10T07:36:59.059Z,-13.00
2023-01-10T07:39:26.192Z,-13.10
2023-01-10T07:41:53.620Z,-13.00
2023-01-10T07:44:20.960Z,-12.90
2023-01-10T07:46:48.313Z,-12.50
2023-01-10T07:49:15.405Z,-12.90
2023-01-10T07:51:42.507Z,-12.90
2023-01-10T07:54:09.985Z,-12.70
2023-01-10T07:56:38.146Z,-12.70
2023-01-10T07:59:05.430Z,-12.70
2023-01-10T08:01:32.667Z,-12.70
2023-01-10T08:04:00.143Z,-12.60
2023-01-10T08:06:27.292Z,-12.60
2023-01-10T08:08:54.620Z,-12.60
2023-01-10T08:11:21.733Z,-12.60
2023-01-10T08:13:48.980Z,-12.50
2023-01-10T08:16:16.236Z,-12.50
2023-01-10T08:18:43.456Z,-12.40
2023-01-10T08:21:10.658Z,-12.40
2023-01-10T08:23:38.158Z,-12.40
2023-01-10T08:26:06.010Z,-12.30
2023-01-10T08:28:33.684Z,-12.20
2023-01-10T08:31:06.504Z,-11.60
2023-01-10T08:33:34.030Z,-12.10
2023-01-10T08:36:01.241Z,-11.90
2023-01-10T08:38:28.498Z,-11.20
2023-01-10T08:40:58.504Z,-11.80
2023-01-10T08:43:25.717Z,-11.90
2023-01-10T08:45:52.876Z,-11.80
2023-01-10T08:48:20.266Z,-11.70
2023-01-10T08:50:47.445Z,-11.80
2023-01-10T08:53:14.840Z,-11.60
2023-01-10T08:55:43.150Z,-11.30
2023-01-10T08:58:10.973Z,-11.40
2023-01-10T09:00:38.446Z,-11.50
2023-01-10T09:03:08.748Z,-11.40
2023-01-10T09:05:35.967Z,-11.50
2023-01-10T09:08:03.759Z,-11.40
2023-01-10T09:10:31.338Z,-11.50
2023-01-10T09:13:01.700Z,-10.70
2023-01-10T09:15:34.745Z,-10.80
2023-01-10T09:18:07.371Z,-11.30
2023-01-10T09:20:37.285Z,-11.30
2023-01-10T09:23:09.965Z,-11.30
2023-01-10T09:25:37.529Z,-11.30
2023-01-10T09:28:05.893Z,-10.30
2023-01-10T09:30:33.165Z,-11.30
2023-01-10T09:33:00.636Z,-11.40
2023-01-10T09:35:29.835Z,-11.30
2023-01-10T09:37:59.192Z,-11.10
2023-01-10T09:40:38.304Z,-11.00
2023-01-10T09:43:05.409Z,-11.30
2023-01-10T09:45:38.212Z,-11.20
2023-01-10T09:48:09.359Z,-11.20
2023-01-10T09:50:45.355Z,-11.20
2023-01-10T09:53:27.358Z,-11.20
2023-01-10T09:55:57.476Z,-11.10
2023-01-10T09:58:28.833Z,-10.90
2023-01-10T10:01:37.381Z,-10.90
2023-01-10T10:04:22.842Z,-11.10
2023-01-10T10:06:53.682Z,-11.10
2023-01-10T10:09:31.382Z,-11.10
2023-01-10T10:12:17.960Z,-10.70
2023-01-10T10:14:56.467Z,-11.10
2023-01-10T10:17:44.876Z,-11.00
2023-01-10T10:20:17.699Z,-8.90
2023-01-10T10:22:53.899Z,-11.00
2023-01-10T10:25:59.834Z,-11.10
2023-01-10T10:28:57.235Z,-11.00
2023-01-10T10:31:43.053Z,-11.20
2023-01-10T10:34:33.228Z,-11.00
2023-01-10T10:37:22.160Z,-10.90
2023-01-10T10:39:57.067Z,-10.90
2023-01-10T10:42:30.833Z,-10.90
2023-01-10T10:45:06.188Z,-10.70
2023-01-10T10:47:36.269Z,-10.90
2023-01-10T10:50:16.067Z,-10.80
2023-01-10T10:52:44.631Z,-10.80
2023-01-10T10:55:17.284Z,-10.90
2023-01-10T10:57:59.583Z,-10.80
2023-01-10T11:00:28.954Z,-10.20
2023-01-10T11:03:03.561Z,-10.50
2023-01-10T11:05:42.680Z,-10.40
2023-01-10T11:08:13.728Z,-10.60
2023-01-10T11:10:44.462Z,-10.60
2023-01-10T11:13:18.324Z,-10.60
2023-01-10T11:15:47.607Z,-10.50
2023-01-10T11:18:20.854Z,-10.80
2023-01-10T11:20:58.426Z,-9.90
2023-01-10T11:23:41.052Z,-10.70
2023-01-10T11:26:10.146Z,-10.70
2023-01-10T11:28:37.548Z,-10.60
2023-01-10T11:31:05.147Z,-10.20
2023-01-10T11:33:40.061Z,-10.60
2023-01-10T11:36:13.352Z,-10.60
2023-01-10T11:38:40.461Z,-10.60
2023-01-10T11:41:19.932Z,-10.50
2023-01-10T11:43:47.192Z,-10.60
2023-01-10T11:46:21.392Z,-10.40
2023-01-10T11:49:06.830Z,-10.60
2023-01-10T11:51:40.723Z,-10.70
2023-01-10T11:54:21.473Z,-10.60
2023-01-10T11:56:59.242Z,-10.60
2023-01-10T11:59:27.894Z,-10.50
2023-01-10T12:02:01.954Z,-10.50
2023-01-10T12:04:33.188Z,-10.50
2023-01-10T12:07:09.386Z,-10.50
2023-01-10T12:09:42.856Z,-10.40
2023-01-10T12:12:24.437Z,-10.40
2023-01-10T12:14:53.331Z,-10.20
2023-01-10T12:17:27.959Z,-10.40
2023-01-10T12:20:00.440Z,-10.50
2023-01-10T12:22:34.540Z,-10.30
2023-01-10T12:25:09.083Z,-10.30
2023-01-10T12:27:36.371Z,-10.40
2023-01-10T12:30:13.423Z,-10.50
2023-01-10T12:32:48.080Z,-10.40
2023-01-10T12:35:40.663Z,-10.10
2023-01-10T12:39:01.971Z,-10.50
2023-01-10T12:42:02.184Z,-10.60
2023-01-10T12:44:36.081Z,-10.60
2023-01-10T12:47:19.971Z,-10.50
2023-01-10T12:50:13.692Z,-10.60
2023-01-10T12:53:04.043Z,-10.40
2023-01-10T12:55:42.816Z,-10.60
2023-01-10T12:58:31.381Z,-10.50
2023-01-10T13:01:01.080Z,-10.50
2023-01-10T13:03:33.830Z,-10.60
2023-01-10T13:06:02.123Z,-10.60
2023-01-10T13:08:33.986Z,-10.40
2023-01-10T13:11:02.673Z,-10.50
2023-01-10T13:13:42.459Z,-10.60
2023-01-10T13:16:15.837Z,-10.60
2023-01-10T13:19:21.443Z,-10.70
2023-01-10T13:21:49.151Z,-10.50
2023-01-10T13:24:17.428Z,-10.70
2023-01-10T13:26:57.989Z,-10.70
2023-01-10T13:29:30.906Z,-10.70
2023-01-10T13:32:02.279Z,-10.80
2023-01-10T13:34:36.225Z,-10.70
2023-01-10T13:37:23.792Z,-10.70
2023-01-10T13:39:57.386Z,-10.80
2023-01-10T13:43:01.108Z,-10.80
2023-01-10T13:45:31.402Z,-10.60
2023-01-10T13:48:00.852Z,-10.80
2023-01-10T13:50:42.400Z,-10.80
2023-01-10T13:53:12.578Z,-10.80
2023-01-10T13:55:39.741Z,-10.40
2023-01-10T13:58:16.125Z,-10.80
2023-01-10T14:01:10.353Z,-10.80
2023-01-10T14:03:42.915Z,-10.80
2023-01-10T14:06:16.415Z,-10.80
2023-01-10T14:08:55.289Z,-10.80
2023-01-10T14:11:45.552Z,-10.80
2023-01-10T14:14:30.156Z,-10.80
2023-01-10T14:17:10.706Z,-10.70
2023-01-10T14:19:39.589Z,-10.80
2023-01-10T14:22:07.218Z,-10.60
2023-01-10T14:24:43.643Z,-10.90
2023-01-10T14:27:16.728Z,-10.80
2023-01-10T14:30:00.185Z,-10.80
2023-01-10T14:32:40.448Z,-10.70
2023-01-10T14:35:10.699Z,-10.80
2023-01-10T14:37:43.722Z,-10.90
2023-01-10T14:40:44.079Z,-9.90
2023-01-10T14:43:16.989Z,-10.80
2023-01-10T14:45:52.442Z,-10.70
2023-01-10T14:48:31.279Z,-10.30
2023-01-10T14:51:24.679Z,-10.90
2023-01-10T14:54:29.518Z,-10.90
2023-01-10T14:56:57.722Z,-10.80
2023-01-10T14:59:36.276Z,-10.90
2023-01-10T15:02:25.238Z,-10.80
2023-01-10T15:04:57.980Z,-10.80
2023-01-10T15:07:26.621Z,-9.30
2023-01-10T15:09:59.844Z,-10.60
2023-01-10T15:12:29.846Z,-10.90
2023-01-10T15:15:06.970Z,-10.80
2023-01-10T15:17:35.994Z,-10.90
2023-01-10T15:20:04.686Z,-10.80
2023-01-10T15:22:34.723Z,-10.80
2023-01-10T15:25:08.218Z,-10.80
2023-01-10T15:27:37.535Z,-10.80
2023-01-10T15:30:10.220Z,-10.80
2023-01-10T15:32:39.740Z,-10.80
2023-01-10T15:35:10.783Z,-10.70
2023-01-10T15:37:41.057Z,-10.80
2023-01-10T15:40:30.840Z,-10.90
2023-01-10T15:43:34.348Z,-10.90
2023-01-10T15:46:04.079Z,-10.90
2023-01-10T15:48:41.715Z,-10.80
2023-01-10T15:51:30.096Z,-10.90
2023-01-10T15:54:06.157Z,-10.40
2023-01-10T15:56:33.599Z,-10.80
2023-01-10T15:59:03.108Z,-10.90
2023-01-10T16:01:33.309Z,-10.70
2023-01-10T16:04:04.709Z,-10.70
2023-01-10T16:06:35.873Z,-10.80
2023-01-10T16:09:07.072Z,-10.80
2023-01-10T16:12:05.590Z,-10.90
2023-01-10T16:14:36.258Z,-10.80
2023-01-10T16:17:05.528Z,-10.50
2023-01-10T16:19:32.655Z,-10.80
2023-01-10T16:22:00.795Z,-10.90
2023-01-10T16:24:33.433Z,-10.80
2023-01-10T16:27:06.339Z,-10.80
2023-01-10T16:29:34.248Z,-10.70
2023-01-10T16:32:01.458Z,-10.90
2023-01-10T16:34:50.069Z,-10.30
2023-01-10T16:37:17.296Z,-10.90
2023-01-10T16:39:44.412Z,-10.90
2023-01-10T16:42:30.144Z,-10.90
2023-01-10T16:44:57.216Z,-11.00
2023-01-10T16:47:24.412Z,-10.80
2023-01-10T16:49:51.600Z,-10.40
2023-01-10T16:52:18.610Z,-10.90
2023-01-10T16:54:45.806Z,-10.90
2023-01-10T16:57:15.553Z,-10.80
2023-01-10T16:59:42.655Z,-10.90
2023-01-10T17:02:22.016Z,-10.90
2023-01-10T17:04:49.064Z,-10.80
2023-01-10T17:07:16.138Z,-10.70
2023-01-10T17:09:45.431Z,-10.70
2023-01-10T17:12:19.515Z,-10.80
2023-01-10T17:14:48.401Z,-10.80
2023-01-10T17:17:15.412Z,-10.80
2023-01-10T17:19:44.677Z,-10.90
2023-01-10T17:22:11.999Z,-10.90
2023-01-10T17:24:39.086Z,-11.00
2023-01-10T17:27:06.192Z,-10.80
2023-01-10T17:29:35.085Z,-10.90
2023-01-10T17:32:02.261Z,-11.00
2023-01-10T17:34:31.316Z,-10.90
2023-01-10T17:36:58.381Z,-10.90
2023-01-10T17:39:25.633Z,-10.90
2023-01-10T17:41:52.929Z,-10.90
2023-01-10T17:44:20.280Z,-10.90
2023-01-10T17:46:47.335Z,-10.00
2023-01-10T17:49:14.465Z,-10.90
2023-01-10T17:51:41.728Z,-10.90
2023-01-10T17:54:08.753Z,-10.80
2023-01-10T17:56:35.787Z,-10.70
2023-01-10T17:59:02.983Z,-10.50
2023-01-10T18:01:30.109Z,-10.80
2023-01-10T18:03:57.297Z,-10.80
2023-01-10T18:06:25.318Z,-10.60
2023-01-10T18:08:53.551Z,-10.80
2023-01-10T18:11:21.598Z,-10.90
2023-01-10T18:13:48.791Z,-10.80
2023-01-10T18:16:15.893Z,-10.90
2023-01-10T18:18:43.080Z,-10.70
2023-01-10T18:21:15.405Z,-10.20
2023-01-10T18:23:42.298Z,-10.80
2023-01-10T18:26:11.762Z,-10.90
2023-01-10T18:28:42.603Z,-10.80
2023-01-10T18:31:18.491Z,-10.90
2023-01-10T18:33:47.499Z,-10.80
2023-01-10T18:36:17.935Z,-10.80
2023-01-10T18:38:46.209Z,-10.80
2023-01-10T18:41:17.096Z,-10.60
2023-01-10T18:43:44.367Z,-10.80
2023-01-10T18:46:14.521Z,-10.60
2023-01-10T18:48:41.709Z,-10.40
2023-01-10T18:51:12.505Z,-10.60
2023-01-10T18:53:40.696Z,-10.80
2023-01-10T18:56:09.226Z,-10.90
2023-01-10T18:58:41.360Z,-10.80
2023-01-10T19:01:14.866Z,-10.80
2023-01-10T19:03:42.621Z,-10.90
2023-01-10T19:06:12.827Z,-10.90
2023-01-10T19:08:40.201Z,-9.50
2023-01-10T19:11:16.512Z,-10.80
2023-01-10T19:13:47.771Z,-10.30
2023-01-10T19:16:29.615Z,-10.80
2023-01-10T19:19:09.293Z,-10.80
2023-01-10T19:21:39.035Z,-10.80
2023-01-10T19:24:08.697Z,-10.70
2023-01-10T19:26:35.887Z,-10.70
2023-01-10T19:29:04.138Z,-10.70
2023-01-10T19:31:31.299Z,-10.40
2023-01-10T19:33:59.759Z,-10.60
2023-01-10T19:36:27.949Z,-10.60
2023-01-10T19:38:57.103Z,-10.10
2023-01-10T19:41:25.648Z,-10.80
2023-01-10T19:44:00.784Z,-10.30
2023-01-10T19:46:28.855Z,-10.60
2023-01-10T19:48:56.279Z,-10.50
2023-01-10T19:51:23.707Z,-10.60
2023-01-10T19:53:50.872Z,-10.50
2023-01-10T19:56:22.062Z,-10.70
2023-01-10T19:58:50.504Z,-10.70
2023-01-10T20:01:23.175Z,-10.60
2023-01-10T20:03:50.754Z,-10.60
2023-01-10T20:06:21.777Z,-10.50
2023-01-10T20:08:49.248Z,-10.70
2023-01-10T20:11:18.057Z,-10.60
2023-01-10T20:13:45.487Z,-10.60
2023-01-10T20:16:15.750Z,-10.30
2023-01-10T20:18:46.269Z,-10.60
2023-01-10T20:21:15.141Z,-10.60
2023-01-10T20:23:42.770Z,-10.70
2023-01-10T20:26:15.141Z,-10.60
2023-01-10T20:28:42.962Z,-10.50
2023-01-10T20:31:18.121Z,-10.60
2023-01-10T20:33:45.365Z,-10.50
2023-01-10T20:36:16.073Z,-10.60
2023-01-10T20:38:43.443Z,-10.00
2023-01-10T20:41:13.869Z,-10.60
2023-01-10T20:43:41.388Z,-10.60
2023-01-10T20:46:11.092Z,-10.50
2023-01-10T20:48:39.584Z,-9.80
2023-01-10T20:51:07.536Z,-10.70
2023-01-10T20:53:34.828Z,-10.50
2023-01-10T20:56:07.912Z,-10.30
2023-01-10T20:58:35.355Z,-10.70
2023-01-10T21:01:03.212Z,-10.70
2023-01-10T21:03:30.292Z,-10.20
2023-01-10T21:06:17.569Z,-10.60
2023-01-10T21:08:45.366Z,-10.70
2023-01-10T21:11:14.606Z,-10.60
2023-01-10T21:13:42.058Z,-10.60
2023-01-10T21:16:12.154Z,-10.70
2023-01-10T21:18:41.250Z,-10.80
2023-01-10T21:21:09.139Z,-10.80
2023-01-10T21:23:36.458Z,-10.20
2023-01-10T21:26:06.082Z,-10.90
2023-01-10T21:28:35.632Z,-11.00
2023-01-10T21:31:02.756Z,-11.00
2023-01-10T21:33:29.876Z,-10.90
2023-01-10T21:36:00.034Z,-10.90
2023-01-10T21:38:28.679Z,-10.90
2023-01-10T21:41:04.197Z,-10.70
2023-01-10T21:43:32.649Z,-10.80
2023-01-10T21:46:01.660Z,-10.90
2023-01-10T21:48:29.915Z,-10.80
2023-01-10T21:50:57.904Z,-10.90
2023-01-10T21:53:25.042Z,-10.80
2023-01-10T21:55:52.185Z,-10.80
2023-01-10T21:58:19.433Z,-10.80
2023-01-10T22:00:46.501Z,-10.60
2023-01-10T22:03:14.001Z,-10.80
2023-01-10T22:05:41.036Z,-10.90
2023-01-10T22:08:08.032Z,-9.80
2023-01-10T22:10:35.130Z,-10.80
2023-01-10T22:13:02.246Z,-10.80
2023-01-10T22:15:30.306Z,-10.80
2023-01-10T22:17:58.628Z,-9.40
2023-01-10T22:20:25.675Z,-10.60
2023-01-10T22:22:52.833Z,-11.10
2023-01-10T22:25:20.159Z,-11.00
2023-01-10T22:27:47.323Z,-11.10
2023-01-10T22:30:14.618Z,-10.50
2023-01-10T22:32:41.720Z,-10.80
2023-01-10T22:35:09.024Z,-10.80
2023-01-10T22:37:36.241Z,-11.00
2023-01-10T22:40:03.359Z,-10.90
2023-01-10T22:42:30.540Z,-10.90
2023-01-10T22:44:57.634Z,-10.90
2023-01-10T22:47:24.740Z,-10.70
2023-01-10T22:49:52.016Z,-10.90
2023-01-10T22:52:19.043Z,-10.80
2023-01-10T22:54:46.199Z,-10.80
2023-01-10T22:57:14.462Z,-10.90
2023-01-10T22:59:41.458Z,-10.90
2023-01-10T23:02:08.662Z,-10.90
2023-01-10T23:04:35.749Z,-10.90
2023-01-10T23:07:02.913Z,-10.80
2023-01-10T23:09:31.083Z,-10.80
2023-01-10T23:11:58.265Z,-10.70
2023-01-10T23:14:25.307Z,-10.50
2023-01-10T23:16:52.508Z,-10.70
2023-01-10T23:19:19.565Z,-10.60
2023-01-10T23:21:46.666Z,-10.70
2023-01-10T23:24:15.784Z,-10.70
2023-01-10T23:26:42.825Z,-10.70
2023-01-10T23:29:09.904Z,-10.70
2023-01-10T23:31:37.031Z,-10.70
2023-01-10T23:34:04.322Z,-10.70
2023-01-10T23:36:31.575Z,-10.80
2023-01-10T23:38:58.860Z,-10.50
2023-01-10T23:41:25.933Z,-10.80
2023-01-10T23:43:53.337Z,-9.80
2023-01-10T23:46:20.761Z,-10.70
2023-01-10T23:48:48.546Z,-9.70
2023-01-10T23:51:15.872Z,-10.70
2023-01-10T23:53:43.068Z,-10.80
2023-01-10T23:56:12.754Z,-10.80
2023-01-10T23:58:40.177Z,-10.80
